createdAt,value
2019-01-28T00:00:21.648Z,90.39
2019-01-28T00:06:26.335Z,89.76
2019-01-28T00:12:30.883Z,89.63
2019-01-28T00:18:35.519Z,89.17
2019-01-28T00:24:41.963Z,89.92
2019-01-28T00:30:46.682Z,89.09
2019-01-28T00:36:52.049Z,89.26
2019-01-28T00:42:56.852Z,89.43
2019-01-28T00:49:01.640Z,89.39
2019-01-28T00:55:10.723Z,89.57
2019-01-28T01:01:15.589Z,89.41
2019-01-28T01:07:21.388Z,89.86
2019-01-28T01:13:25.947Z,89.19
2019-01-28T01:19:30.716Z,89.69
2019-01-28T01:25:35.461Z,89.33
2019-01-28T01:31:40.282Z,88.65
2019-01-28T01:37:44.897Z,88.11
2019-01-28T01:43:49.446Z,88.65
2019-01-28T01:49:53.997Z,88.20
2019-01-28T01:55:58.614Z,87.66
2019-01-28T02:02:03.276Z,88.06
2019-01-28T02:08:07.971Z,87.65
2019-01-28T02:14:13.487Z,86.61
2019-01-28T02:20:18.341Z,87.27
2019-01-28T02:26:22.985Z,86.19
2019-01-28T02:32:27.591Z,85.28
2019-01-28T02:38:32.907Z,85.44
2019-01-28T02:44:37.636Z,85.25
2019-01-28T02:50:42.493Z,85.52
2019-01-28T02:56:47.189Z,85.70
2019-01-28T03:02:51.845Z,86.25
2019-01-28T03:08:56.553Z,85.06
2019-01-28T03:15:01.084Z,84.86
2019-01-28T03:21:05.907Z,84.64
2019-01-28T03:27:10.602Z,83.75
2019-01-28T03:33:15.543Z,84.19
2019-01-28T03:39:20.325Z,83.39
2019-01-28T03:45:25.011Z,83.75
2019-01-28T03:51:29.626Z,83.41
2019-01-28T03:57:34.292Z,83.36
2019-01-28T04:03:38.907Z,83.20
2019-01-28T04:09:43.978Z,83.22
2019-01-28T04:15:48.644Z,84.22
2019-01-28T04:21:53.279Z,83.66
2019-01-28T04:27:57.829Z,83.53
2019-01-28T04:34:02.374Z,83.34
2019-01-28T04:40:13.979Z,83.65
2019-01-28T04:46:18.693Z,83.41
2019-01-28T04:52:23.610Z,83.43
2019-01-28T04:58:28.487Z,83.38
2019-01-28T05:04:33.392Z,84.14
2019-01-28T05:10:38.223Z,84.00
2019-01-28T05:16:43.383Z,83.95
2019-01-28T05:22:48.113Z,84.50
2019-01-28T05:28:52.730Z,84.18
2019-01-28T05:34:57.294Z,83.57
2019-01-28T05:41:01.930Z,81.87
2019-01-28T05:47:06.544Z,82.39
2019-01-28T05:53:12.585Z,82.21
2019-01-28T05:59:17.274Z,82.44
2019-01-28T06:05:22.090Z,82.01
2019-01-28T06:11:26.910Z,82.48
2019-01-28T06:17:38.669Z,81.36
2019-01-28T06:23:38.191Z,80.95
2019-01-28T06:29:43.497Z,81.58
2019-01-28T06:35:48.111Z,80.95
2019-01-28T06:41:52.817Z,80.07
2019-01-28T06:47:59.716Z,80.17
2019-01-28T06:54:04.331Z,80.53
2019-01-28T07:00:16.376Z,81.01
2019-01-28T07:06:21.142Z,80.01
2019-01-28T07:12:26.026Z,79.89
2019-01-28T07:18:30.837Z,80.06
2019-01-28T07:24:35.391Z,80.14
2019-01-28T07:30:41.053Z,79.74
2019-01-28T07:36:45.740Z,79.40
2019-01-28T07:42:50.346Z,78.93
2019-01-28T07:48:55.272Z,78.45
2019-01-28T07:54:59.874Z,79.30
2019-01-28T08:01:04.615Z,79.24
2019-01-28T08:07:10.144Z,79.22
2019-01-28T08:13:15.007Z,79.71
2019-01-28T08:19:19.929Z,78.99
2019-01-28T08:25:24.726Z,79.94
2019-01-28T08:31:29.486Z,80.62
2019-01-28T08:37:34.013Z,81.37
2019-01-28T08:43:38.599Z,81.79
2019-01-28T08:49:43.762Z,82.05
2019-01-28T08:55:48.593Z,82.76
2019-01-28T09:01:53.785Z,83.55
2019-01-28T09:07:58.671Z,84.34
2019-01-28T09:14:03.269Z,85.29
2019-01-28T09:20:23.899Z,86.08
2019-01-28T09:26:30.356Z,86.45
2019-01-28T09:32:35.152Z,86.35
2019-01-28T09:38:40.185Z,87.00
2019-01-28T09:44:45.003Z,87.40
2019-01-28T09:50:49.762Z,87.91
2019-01-28T09:56:54.737Z,88.09
2019-01-28T10:02:59.902Z,88.57
2019-01-28T10:09:10.157Z,88.34
2019-01-28T10:15:21.814Z,88.58
2019-01-28T10:21:26.462Z,88.24
2019-01-28T10:27:31.099Z,88.37
2019-01-28T10:33:35.741Z,89.08
2019-01-28T10:39:41.103Z,88.15
2019-01-28T10:45:47.664Z,87.99
2019-01-28T10:51:52.609Z,87.46
2019-01-28T10:57:57.890Z,86.48
2019-01-28T11:04:02.596Z,86.85
2019-01-28T11:10:11.933Z,87.34
2019-01-28T11:16:16.791Z,87.20
2019-01-28T11:22:22.055Z,87.69
2019-01-28T11:28:28.381Z,87.41
2019-01-28T11:34:33.070Z,87.29
2019-01-28T11:40:37.868Z,86.76
2019-01-28T11:46:43.028Z,86.20
2019-01-28T11:52:47.704Z,86.39
2019-01-28T11:58:52.256Z,84.84
2019-01-28T12:04:56.818Z,86.04
2019-01-28T12:11:01.425Z,85.06
2019-01-28T12:17:06.433Z,84.87
2019-01-28T12:23:11.253Z,84.34
2019-01-28T12:29:16.077Z,84.40
2019-01-28T12:35:20.898Z,86.15
2019-01-28T12:41:25.656Z,86.78
2019-01-28T12:47:30.365Z,86.49
2019-01-28T12:53:35.281Z,84.71
2019-01-28T12:59:40.233Z,84.51
2019-01-28T13:05:45.031Z,84.67
2019-01-28T13:11:49.561Z,84.73
2019-01-28T13:17:57.498Z,84.48
2019-01-28T13:24:02.061Z,85.39
2019-01-28T13:30:11.453Z,84.87
2019-01-28T13:36:16.312Z,85.59
2019-01-28T13:42:20.923Z,85.72
2019-01-28T13:48:25.480Z,86.72
2019-01-28T13:54:30.103Z,88.65
2019-01-28T14:00:35.175Z,88.51
2019-01-28T14:06:42.155Z,88.02
2019-01-28T14:12:46.844Z,88.57
2019-01-28T14:18:52.425Z,89.40
2019-01-28T14:24:57.034Z,90.37
2019-01-28T14:31:01.656Z,91.47
2019-01-28T14:37:06.510Z,92.42
2019-01-28T14:43:12.202Z,92.77
2019-01-28T14:49:17.190Z,94.16
2019-01-28T14:55:24.402Z,94.63
2019-01-28T15:01:29.285Z,94.41
2019-01-28T15:07:34.170Z,94.59
2019-01-28T15:13:38.858Z,94.96
2019-01-28T15:19:50.600Z,94.93
2019-01-28T15:25:50.240Z,95.09
2019-01-28T15:31:54.779Z,95.63
2019-01-28T15:37:59.389Z,96.36
2019-01-28T15:44:04.103Z,96.74
2019-01-28T15:50:13.480Z,97.21
2019-01-28T15:56:18.095Z,96.51
2019-01-28T16:02:22.728Z,97.46
2019-01-28T16:08:27.359Z,97.42
2019-01-28T16:14:32.074Z,97.12
2019-01-28T16:20:36.841Z,97.30
2019-01-28T16:26:41.498Z,97.19
2019-01-28T16:32:46.373Z,97.13
2019-01-28T16:45:01.401Z,96.97
2019-01-28T16:51:07.298Z,96.82
2019-01-28T16:57:12.268Z,96.99
2019-01-28T17:03:17.056Z,97.33
2019-01-28T17:09:21.599Z,98.15
2019-01-28T17:15:26.446Z,97.91
2019-01-28T17:21:31.001Z,97.89
2019-01-28T17:27:36.557Z,97.96
2019-01-28T17:33:41.575Z,97.79
2019-01-28T17:39:46.309Z,97.69
2019-01-28T17:45:51.311Z,96.62
2019-01-28T17:51:55.863Z,97.29
2019-01-28T17:58:00.427Z,98.15
2019-01-28T18:04:05.276Z,98.52
2019-01-28T18:10:14.091Z,97.90
2019-01-28T18:16:19.104Z,95.95
2019-01-28T18:22:24.078Z,95.86
2019-01-28T18:28:28.968Z,94.84
2019-01-28T18:34:33.718Z,94.35
2019-01-28T18:40:38.382Z,94.39
2019-01-28T18:46:43.425Z,94.99
2019-01-28T18:52:48.855Z,95.30
2019-01-28T18:58:53.493Z,96.23
2019-01-28T19:04:58.402Z,97.74
2019-01-28T19:11:04.750Z,97.97
2019-01-28T19:17:13.609Z,98.36
2019-01-28T19:23:18.254Z,98.19
2019-01-28T19:29:24.166Z,98.32
2019-01-28T19:35:28.966Z,98.18
2019-01-28T19:41:33.717Z,98.43
2019-01-28T19:47:38.300Z,98.28
2019-01-28T19:53:43.320Z,97.57
2019-01-28T19:59:48.830Z,97.69
2019-01-28T20:05:53.590Z,97.30
2019-01-28T20:11:58.478Z,97.12
2019-01-28T20:18:03.350Z,96.68
2019-01-28T20:24:08.042Z,97.37
2019-01-28T20:30:28.018Z,97.24
2019-01-28T20:36:32.659Z,97.07
2019-01-28T20:42:37.496Z,97.62
2019-01-28T20:48:42.408Z,97.94
2019-01-28T20:54:47.091Z,97.80
2019-01-28T21:00:51.707Z,98.85
2019-01-28T21:06:56.532Z,99.49
2019-01-28T21:13:01.208Z,99.56
2019-01-28T21:19:06.056Z,99.27
2019-01-28T21:25:20.900Z,98.84
2019-01-28T21:31:25.473Z,97.98
2019-01-28T21:37:30.658Z,98.40
2019-01-28T21:43:35.344Z,97.95
2019-01-28T21:49:40.475Z,96.58
2019-01-28T21:55:45.569Z,96.48
2019-01-28T22:01:53.559Z,95.96
2019-01-28T22:07:58.274Z,95.48
2019-01-28T22:14:03.274Z,94.12
2019-01-28T22:20:10.667Z,93.67
2019-01-28T22:26:16.455Z,92.88
2019-01-28T22:32:24.455Z,93.26
2019-01-28T22:38:29.069Z,92.17
2019-01-28T22:44:33.640Z,89.99
2019-01-28T22:50:38.459Z,90.24
2019-01-28T22:56:43.141Z,87.79
2019-01-28T23:02:47.823Z,88.69
2019-01-28T23:08:52.433Z,87.99
2019-01-28T23:14:57.067Z,88.33
2019-01-28T23:21:01.734Z,87.71
2019-01-28T23:27:06.427Z,88.35
2019-01-28T23:33:11.376Z,88.93
2019-01-28T23:39:16.166Z,88.69
2019-01-28T23:45:20.716Z,88.79
2019-01-28T23:51:25.386Z,87.91
2019-01-28T23:57:30.041Z,88.60
